METAR / TAF

Die METAR- und TAF-Liste ist aus technischen Gründen (Verfügbarkeit, Update-Zyklen) nicht für ein Meteo-Briefing gedacht. Benutzen Sie stattdessen skybriefing der Skyguide  oder das TAMSI (MeteoSchweiz-eigene Meteo Selfbriefing-Plattform für Firmen aus der Aviatik; Anfragen über das

Kontaktformular

METAR Schweiz

METAR     LSZH 011420Z 26007KT 220V320 9999 FEW043 26/16 Q1017
               NOSIG=
METAR     LSZH 011450Z VRB05KT 9999 FEW045 26/16 Q1017 NOSIG=
METAR     LSGG 011420Z 23013KT 9999 FEW050 29/15 Q1017 NOSIG=
METAR     LSGG 011450Z 24006KT 9999 FEW050 29/13 Q1017 NOSIG=
METAR     LFSB 011430Z 30005KT 230V360 9999 FEW049 SCT090 26/15
               Q1016 NOSIG=
METAR     LSZB 011420Z 32006KT 300V360 9999 SCT043 SCT060 26/17
               Q1017 NOSIG=
METAR     LSZB 011450Z VRB03KT 9999 SCT043 SCT060 27/18 Q1017 NOSIG=
METAR     LSZA 011420Z 24005KT 190V280 9999 SCT045TCU 29/19 Q1017
               NOSIG=
METAR     LSZA 011450Z 24004KT 160V290 9999 SCT045TCU 29/18 Q1016
               NOSIG=
METAR     LSZG 011420Z 24011KT 9999 FEW040 SCT110 27/14 Q1017 NOSIG=
METAR     LSZG NIL=
METAR     LSZR 011420Z 30004KT 270V340 CAVOK 25/15 Q1017 NOSIG RMK
               K=
METAR     LSZR NIL=
METAR     LSGS 011420Z 26012KT 230V290 9999 SCT110 30/15 Q1015=
METAR     LSGS NIL=
METAR     LSGC 011420Z 23006KT 200V280 9999 SCT032 BKN041 20/14
               Q1020=
METAR     LSGC NIL=
METAR     LSZC 011420Z AUTO VRB03KT CAVOK 26/16 Q1017=
METAR     LSZC NIL=
METAR     LSZL 011420Z NIL=
METAR     LSZL NIL=
METAR     LSZS 011420Z 22013KT 9999 BKN045 20/09 Q1023=
METAR     LSZS NIL=
METAR     LSMA NIL=
METAR     LSMA NIL=
METAR     LSMD NIL=
METAR     LSMD NIL=
METAR     LSME NIL=
METAR     LSME NIL=
METAR     LSMM NIL=
METAR     LSMM NIL=
METAR     LSMP NIL=
METAR     LSMP NIL=
METAR     LSMS NIL=
METAR     LSMS NIL=
Aktualisiert am Freitag, 01. Juli 2016, 17:02 Uhr

TAF Schweiz

TAF     LSZH 011125Z 0112/0218 VRB04KT 9999 FEW030 TX27/0115Z
             TN16/0204Z TX22/0215Z TEMPO 0200/0213 SHRA FEW010
             SCT030TCU BKN060 PROB30 TEMPO 0200/0212 4000 TSRA
             SCT025CB BECMG 0210/0213 27010KT PROB30 TEMPO
             0212/0217 30012G25KT=
TAF     LSGG 011125Z 0112/0218 22010KT 9999 FEW040 TX28/0115Z
             TN19/0205Z TX23/0215Z BECMG 0118/0120 VRB03KT BECMG
             0121/0124 FEW050TCU BKN090 PROB30 TEMPO 0200/0212
             25010KT 8000 SHRA SCT045TCU BKN060 BECMG 0212/0215
             30012KT=
TAF     LFSB 011100Z 0112/0212 30007KT 9999 SCT050 TEMPO 0201/0212
             -SHRA SCT030TCU PROB30 TEMPO 0203/0206 SHRA SCT015
             BKN025TCU=
TAF     LSGS 011125Z 0112/0121 25012KT 9999 FEW100 BECMG 0112/0114
             FEW090TCU SCT100 BECMG 0118/0120 VRB03KT CAVOK=
TAF     LSZA 011125Z 0112/0121 19005KT 9999 SCT040TCU PROB30 TEMPO
             0112/0118 CAVOK TEMPO 0117/0121 SHRA PROB40 TEMPO
             0118/0121 4000 TSRA SCT035CB=
TAF     LSZB 011125Z 0112/0121 30006KT 9999 FEW035 TEMPO 0112/0121
             CAVOK=
TAF     LSZG 011125Z 0112/0121 20005KT 9999 SCT035=
TAF     LSZL 011125Z 0112/0121 25005KT 9999 FEW060 TEMPO 0117/0121
             SHRA PROB40 TEMPO 0118/0121 4000 TSRA SCT035CB=
TAF     LSZR 011125Z 0112/0121 31005KT CAVOK TEMPO 0112/0121 9999
             FEW050 TEMPO 0118/0121 9999 SHRA SCT045TCU PROB30
             TEMPO 0119/0121 20012G25KT 4000 TSRA SCT040CB=
TAF RRA LSGC 011125Z 0112/0121 21006KT 9999 FEW030 SCT050 TEMPO
             0112/0118 23012KT BKN030 BECMG 0118/0120 FEW040=
TAF     LSZC 011125Z 0112/0121 VRB04KT 9999 FEW050 PROB30 TEMPO
             0112/0115 CAVOK TEMPO 0112/0117 05008KT PROB40 TEMPO
             0117/0121 SHRA SCT045TCU PROB30 TEMPO 0118/0121 4000
             TSRA SCT040CB=
TAF CCA LSZS 011125Z 0112/0121 10103KT 9999 BKN050 TX20/0114Z BECMG
             0117/0120 VRB03KT PROB40 TEMPO 0117/0121 SHRA
             SCT045TCU PROB30 TEMPO 0118/0121 TSRA SCT040CB=
TAF AAA LSZS 011220Z 0112/0121 23012KT 9999 BKN050 TX20/0114Z BECMG
             0117/0120 VRB03KT PROB40 TEMPO 0117/0121 SHRA
             SCT045TCU PROB30 TEMPO 0118/0121 TSRA SCT040CB=
TAF     LSMA 010925Z 0110/0216 05007KT 9999 FEW030 PROB40 TEMPO
             0114/0122 SHRA SCT030TCU TEMPO 0122/0216 SHRA
             SCT030TCU PROB40 TEMPO 0121/0216 4000 TSRA SCT025CB=
TAF     LSMD 010925Z 0110/0216 VRB03KT 9999 FEW030 PROB30 TEMPO
             0115/0122 SHRA SCT030TCU TEMPO 0122/0216 SHRA
             SCT030TCU PROB40 TEMPO 0121/0216 30010G25KT 4000 TSRA
             SCT025CB=
TAF     LSME 010925Z 0110/0216 VRB03KT 9999 FEW030 PROB30 TEMPO
             0115/0122 SHRA SCT030TCU TEMPO 0122/0216 SHRA
             SCT030TCU PROB40 TEMPO 0121/0216 29010G25KT 4000 TSRA
             SCT025CB=
TAF     LSMM 010925Z 0110/0216 27008KT 9999 FEW040 PROB40 TEMPO
             0114/0122 SHRA SCT030TCU TEMPO 0122/0216 SHRA
             SCT030TCU PROB40 TEMPO 0118/0216 4000 TSRA SCT025CB=
TAF RRA LSMP 010925Z 0110/0216 VRB03KT 9999 FEW040 SCT050 TEMPO
             0112/0118 25007KT BECMG 0121/0124 9999 FEW050TCU
             BKN090 TEMPO 0200/0212 23012KT 9000 SHRA FEW020TCU
             BKN050 BECMG 0212/0215 30012KT=
Aktualisiert am Freitag, 01. Juli 2016, 15:02 Uhr